Time;durP1;ratioP1;P1;durP2;ratioP2;P2;SDS_P1;SDS_P2;PMS_P1;PMS_P2;Temp;Humidity;BMP_temperature;BMP_pressure;BME280_temperature;BME280_humidity;BME280_pressure;Samples;Min_cycle;Max_cycle;Signal;HPM_P1;HPM_P2
2022/06/28 02:48:10;;;;;;;1.30;0.50;;;15.90;99.90;;;;;;5067206;23;89759;-71
2022/06/28 02:50:36;;;;;;;1.00;0.50;;;15.80;99.90;;;;;;4918346;28;88712;-71
2022/06/28 02:53:02;;;;;;;2.28;0.40;;;15.80;99.90;;;;;;4931401;28;86908;-73
2022/06/28 02:55:28;;;;;;;1.98;0.50;;;15.90;99.90;;;;;;4937913;28;87192;-72
2022/06/28 02:57:54;;;;;;;5.70;0.77;;;15.90;99.90;;;;;;4938781;28;87260;-72
2022/06/28 03:00:20;;;;;;;2.42;0.75;;;16.00;99.90;;;;;;4919887;28;87102;-71
2022/06/28 03:02:47;;;;;;;1.45;0.80;;;16.00;99.90;;;;;;4929310;28;86945;-71
2022/06/28 03:05:17;;;;;;;1.55;0.40;;;16.00;99.90;;;;;;4939351;28;86585;-71
2022/06/28 03:07:43;;;;;;;3.47;0.85;;;16.00;99.90;;;;;;4938079;28;87041;-72
2022/06/28 03:10:09;;;;;;;2.70;0.73;;;15.90;99.90;;;;;;4950728;28;86943;-74
2022/06/28 03:12:36;;;;;;;3.47;0.80;;;15.90;99.90;;;;;;4957495;28;87907;-72
2022/06/28 03:15:02;;;;;;;2.90;0.77;;;15.80;99.90;;;;;;4957736;28;87008;-72
2022/06/28 03:17:28;;;;;;;2.00;0.85;;;15.80;99.90;;;;;;4956668;28;88094;-71
2022/06/28 03:19:53;;;;;;;2.70;1.00;;;15.80;99.90;;;;;;4957115;28;87004;-72
2022/06/28 03:22:19;;;;;;;2.60;0.73;;;15.80;99.90;;;;;;4958164;28;87115;-72
2022/06/28 03:24:46;;;;;;;2.60;0.85;;;15.80;99.90;;;;;;4956932;28;87106;-71
2022/06/28 03:27:12;;;;;;;4.82;1.10;;;15.70;99.90;;;;;;4943045;28;87159;-72
2022/06/28 03:29:38;;;;;;;3.50;1.27;;;15.80;99.90;;;;;;4930223;28;87049;-74
2022/06/28 03:32:04;;;;;;;2.78;0.80;;;15.90;99.90;;;;;;4924042;28;87002;-71
2022/06/28 03:34:30;;;;;;;2.35;1.30;;;16.00;99.90;;;;;;4923244;28;86964;-73
2022/06/28 03:36:56;;;;;;;6.25;1.05;;;16.10;99.90;;;;;;4927719;28;88155;-72
2022/06/28 03:39:22;;;;;;;6.30;1.35;;;16.10;99.90;;;;;;4928673;28;87892;-72
2022/06/28 03:41:48;;;;;;;2.60;1.17;;;16.20;99.90;;;;;;4927055;28;86909;-72
2022/06/28 03:44:14;;;;;;;6.40;1.30;;;16.20;99.90;;;;;;4932462;28;87155;-74
2022/06/28 03:46:39;;;;;;;4.80;1.15;;;16.20;99.90;;;;;;4936957;28;87677;-76
2022/06/28 03:49:05;;;;;;;3.35;1.10;;;16.30;99.90;;;;;;4937852;28;87008;-73
2022/06/28 03:51:31;;;;;;;2.47;1.10;;;16.30;99.90;;;;;;4938109;28;87497;-72
2022/06/28 03:53:56;;;;;;;2.88;1.52;;;16.40;99.90;;;;;;4935857;28;86382;-74
2022/06/28 03:56:22;;;;;;;2.15;1.10;;;16.40;99.90;;;;;;4926042;28;88022;-71
2022/06/28 03:58:48;;;;;;;3.95;1.30;;;16.40;99.90;;;;;;4925351;28;88650;-74
2022/06/28 04:01:14;;;;;;;3.42;1.00;;;16.40;99.90;;;;;;4931113;28;87877;-72
2022/06/28 04:03:39;;;;;;;3.25;1.33;;;16.50;99.90;;;;;;4930271;28;87153;-74
2022/06/28 04:06:05;;;;;;;2.80;1.35;;;16.60;99.90;;;;;;4936316;28;87399;-74
2022/06/28 04:08:31;;;;;;;4.28;1.88;;;16.60;99.90;;;;;;4936395;28;87412;-71
2022/06/28 04:11:15;;;;;;;2.75;1.05;;;16.70;99.90;;;;;;4928311;28;86838;-71
2022/06/28 04:13:46;;;;;;;3.42;0.63;;;16.70;99.90;;;;;;4936326;28;88606;-74
2022/06/28 04:16:12;;;;;;;4.38;1.17;;;16.80;99.90;;;;;;4940875;28;88613;-72
2022/06/28 04:18:38;;;;;;;2.25;1.05;;;16.90;99.90;;;;;;4941055;28;87467;-73
2022/06/28 04:21:04;;;;;;;1.90;0.65;;;17.00;99.90;;;;;;4940451;28;86972;-72
2022/06/28 04:23:30;;;;;;;1.90;0.60;;;16.90;99.90;;;;;;4939715;28;86941;-76
2022/06/28 04:25:56;;;;;;;2.85;0.98;;;16.90;99.90;;;;;;4939924;28;87890;-71
2022/06/28 04:28:22;;;;;;;2.40;0.80;;;17.00;99.90;;;;;;4939722;28;87058;-71
2022/06/28 04:30:48;;;;;;;3.20;1.00;;;16.80;99.90;;;;;;4940917;28;86833;-71
2022/06/28 04:33:13;;;;;;;2.63;0.82;;;16.80;99.90;;;;;;4940160;28;86968;-73
2022/06/28 04:35:39;;;;;;;3.25;0.85;;;16.80;99.90;;;;;;4944647;28;88050;-73
2022/06/28 04:38:05;;;;;;;2.00;0.80;;;16.80;99.90;;;;;;4939582;28;88210;-73
2022/06/28 04:40:30;;;;;;;1.73;0.80;;;16.80;99.90;;;;;;4939969;28;87320;-72
2022/06/28 04:42:56;;;;;;;2.38;0.73;;;16.70;99.90;;;;;;4940045;28;86293;-73
2022/06/28 04:45:22;;;;;;;2.92;1.25;;;16.60;99.90;;;;;;4928087;28;87044;-73
2022/06/28 04:47:48;;;;;;;2.15;0.80;;;16.60;99.90;;;;;;4936753;28;87107;-71
2022/06/28 04:50:13;;;;;;;2.85;1.15;;;16.50;99.90;;;;;;4939134;28;87956;-75
2022/06/28 04:52:39;;;;;;;1.58;0.75;;;16.50;99.90;;;;;;4951551;28;87384;-74
2022/06/28 04:55:06;;;;;;;3.00;1.35;;;16.60;99.90;;;;;;4937521;28;87234;-72
2022/06/28 04:57:31;;;;;;;2.63;1.20;;;16.60;99.90;;;;;;4937293;28;87861;-73
2022/06/28 04:59:57;;;;;;;2.17;1.00;;;16.80;99.90;;;;;;4937695;28;86905;-74
2022/06/28 05:02:23;;;;;;;2.70;0.75;;;16.90;99.90;;;;;;4937490;28;87811;-72
2022/06/28 05:04:49;;;;;;;1.95;0.77;;;16.80;99.90;;;;;;4932695;28;87113;-72
2022/06/28 05:07:14;;;;;;;1.80;0.60;;;16.90;99.90;;;;;;4937374;28;86294;-74
2022/06/28 05:09:40;;;;;;;6.07;0.85;;;17.10;99.90;;;;;;4940971;28;87099;-73
2022/06/28 05:12:07;;;;;;;3.45;1.13;;;17.30;99.90;;;;;;4935978;28;87044;-72
2022/06/28 05:14:33;;;;;;;4.32;0.75;;;17.80;99.90;;;;;;4938309;28;88132;-73
2022/06/28 05:17:02;;;;;;;2.92;1.13;;;17.70;99.90;;;;;;4938340;28;88242;-74
2022/06/28 05:19:30;;;;;;;2.58;0.60;;;18.10;99.90;;;;;;4938203;28;87253;-73
2022/06/28 05:21:56;;;;;;;2.88;0.80;;;19.30;99.90;;;;;;4938165;28;87010;-73
2022/06/28 05:24:22;;;;;;;3.83;0.90;;;20.40;99.90;;;;;;4938269;28;87735;-72
2022/06/28 05:26:48;;;;;;;2.67;0.80;;;21.40;99.90;;;;;;4939214;28;87459;-72
2022/06/28 05:29:14;;;;;;;5.35;1.00;;;21.40;99.90;;;;;;4938498;28;86923;-74
2022/06/28 05:31:40;;;;;;;2.53;0.90;;;21.50;99.90;;;;;;4937601;28;86202;-72
2022/06/28 05:34:05;;;;;;;2.42;0.93;;;21.70;99.90;;;;;;4938341;28;87301;-73
2022/06/28 05:36:31;;;;;;;5.25;1.20;;;22.70;99.90;;;;;;4936365;28;86890;-71
2022/06/28 05:38:57;;;;;;;5.10;1.10;;;22.00;99.90;;;;;;4937896;28;87935;-71
2022/06/28 05:41:23;;;;;;;3.33;0.80;;;22.00;99.90;;;;;;4934931;28;86921;-73
2022/06/28 05:43:49;;;;;;;4.55;1.02;;;22.10;99.90;;;;;;4937573;28;89003;-74
2022/06/28 05:46:14;;;;;;;2.08;1.05;;;22.20;99.90;;;;;;4931314;28;86757;-73
2022/06/28 05:48:40;;;;;;;5.53;1.50;;;22.90;99.90;;;;;;4937160;28;87010;-73
2022/06/28 05:51:06;;;;;;;3.10;0.50;;;23.50;99.90;;;;;;4932922;28;87093;-71
2022/06/28 05:53:31;;;;;;;3.08;1.17;;;24.00;99.90;;;;;;4937892;28;86644;-73
2022/06/28 05:55:58;;;;;;;2.55;1.20;;;23.90;99.90;;;;;;4937735;28;86921;-76
2022/06/28 05:58:24;;;;;;;2.63;0.68;;;23.70;99.90;;;;;;4938116;28;87050;-72
2022/06/28 06:00:49;;;;;;;2.38;0.90;;;23.70;99.90;;;;;;4939406;28;86899;-72
2022/06/28 06:03:16;;;;;;;2.75;0.77;;;23.40;99.90;;;;;;4936651;28;88814;-72
2022/06/28 06:05:42;;;;;;;1.55;0.88;;;23.40;99.90;;;;;;4937575;28;88862;-74
2022/06/28 06:08:08;;;;;;;2.15;1.42;;;23.10;99.90;;;;;;4937967;28;86898;-71
2022/06/28 06:10:34;;;;;;;2.60;1.40;;;23.20;99.90;;;;;;4937670;28;86988;-72
2022/06/28 06:13:00;;;;;;;1.58;0.80;;;23.20;99.90;;;;;;4937698;28;87461;-72
2022/06/28 06:15:25;;;;;;;4.45;1.00;;;23.30;99.90;;;;;;4937455;28;86820;-74
2022/06/28 06:17:51;;;;;;;2.15;1.00;;;23.10;99.90;;;;;;4938015;28;87352;-72
2022/06/28 06:20:17;;;;;;;2.97;0.82;;;22.60;99.90;;;;;;4938731;28;86886;-71
2022/06/28 06:22:43;;;;;;;2.58;1.00;;;22.10;99.90;;;;;;4937432;28;88387;-71
2022/06/28 06:25:09;;;;;;;2.25;0.95;;;21.90;99.90;;;;;;4938332;28;86912;-72
2022/06/28 06:27:34;;;;;;;3.38;0.80;;;21.90;99.90;;;;;;4937702;28;88041;-73
2022/06/28 06:30:00;;;;;;;2.13;0.93;;;22.00;99.90;;;;;;4937657;28;87292;-73
2022/06/28 06:32:27;;;;;;;2.13;1.33;;;21.80;99.90;;;;;;4937637;28;87530;-73
2022/06/28 06:34:52;;;;;;;3.55;1.13;;;21.90;99.90;;;;;;4948600;28;87000;-73
2022/06/28 06:37:18;;;;;;;3.03;1.05;;;22.00;99.90;;;;;;4937357;28;86889;-71
2022/06/28 06:39:43;;;;;;;1.27;0.40;;;21.90;99.90;;;;;;4938016;28;87022;-72
2022/06/28 06:42:09;;;;;;;2.55;1.10;;;21.80;99.90;;;;;;4937437;28;87030;-73
2022/06/28 06:44:35;;;;;;;3.13;0.70;;;21.70;99.90;;;;;;4922769;28;86343;-74
2022/06/28 06:47:01;;;;;;;2.72;0.35;;;21.80;99.90;;;;;;4930766;28;87069;-71
2022/06/28 06:49:26;;;;;;;2.38;0.55;;;21.70;99.90;;;;;;4937343;28;87127;-74
2022/06/28 06:51:52;;;;;;;2.70;1.10;;;21.30;99.90;;;;;;4938057;28;88740;-72
2022/06/28 06:54:18;;;;;;;2.92;0.90;;;21.00;99.90;;;;;;4936896;28;88278;-72
2022/06/28 06:56:44;;;;;;;3.00;0.80;;;21.00;99.90;;;;;;4937231;28;87305;-71
2022/06/28 06:59:13;;;;;;;2.20;1.10;;;20.90;99.90;;;;;;4937133;28;87187;-72
2022/06/28 07:01:40;;;;;;;1.63;0.73;;;21.00;99.90;;;;;;4936712;28;87071;-73
2022/06/28 07:04:06;;;;;;;2.58;1.17;;;20.80;99.90;;;;;;4936763;28;87091;-72
2022/06/28 07:06:33;;;;;;;5.55;1.25;;;20.60;99.90;;;;;;4937381;28;87050;-72
2022/06/28 07:08:58;;;;;;;4.55;1.50;;;20.20;99.90;;;;;;4941997;28;85964;-72
2022/06/28 07:11:24;;;;;;;1.58;0.90;;;20.20;99.90;;;;;;4930625;28;87333;-72
2022/06/28 07:13:50;;;;;;;1.52;0.40;;;20.30;99.90;;;;;;4936944;28;86942;-71
2022/06/28 07:16:16;;;;;;;2.08;1.17;;;20.40;99.90;;;;;;4936562;28;87798;-72
2022/06/28 07:18:42;;;;;;;2.75;0.70;;;20.60;99.90;;;;;;4936997;28;86919;-73
2022/06/28 07:21:08;;;;;;;2.88;1.52;;;20.60;99.90;;;;;;4932286;28;87208;-71
2022/06/28 07:23:34;;;;;;;6.88;1.10;;;21.10;99.90;;;;;;4936516;28;87260;-71
2022/06/28 07:26:00;;;;;;;2.53;0.95;;;21.30;99.90;;;;;;4935563;28;87088;-72
2022/06/28 07:28:26;;;;;;;2.30;0.50;;;21.40;99.90;;;;;;4936624;28;86859;-74
2022/06/28 07:30:51;;;;;;;3.03;0.80;;;21.50;99.90;;;;;;4925848;28;87253;-74
2022/06/28 07:33:17;;;;;;;3.28;0.80;;;21.90;99.90;;;;;;4935511;28;86822;-72
2022/06/28 07:35:44;;;;;;;4.40;0.98;;;22.50;99.90;;;;;;4930556;28;86488;-71
2022/06/28 07:38:10;;;;;;;6.45;1.10;;;22.90;99.90;;;;;;4935704;28;87551;-73
2022/06/28 07:40:36;;;;;;;2.92;0.82;;;23.00;94.30;;;;;;4929537;28;87953;-74
2022/06/28 07:43:02;;;;;;;2.03;0.70;;;22.40;95.70;;;;;;4936735;28;87876;-72
2022/06/28 07:45:27;;;;;;;2.33;1.48;;;22.40;95.50;;;;;;4928716;28;86932;-72
2022/06/28 07:47:53;;;;;;;1.63;0.60;;;23.00;94.30;;;;;;4937618;28;86958;-74
2022/06/28 07:53:05;;;;;;;3.30;1.10;;;25.40;86.20;;;;;;4939999;28;87441;-74
2022/06/28 07:55:32;;;;;;;2.70;0.63;;;27.00;81.60;;;;;;4939934;28;87376;-71
2022/06/28 07:57:59;;;;;;;3.50;1.20;;;28.50;75.80;;;;;;4943153;28;86426;-71
2022/06/28 08:00:26;;;;;;;2.78;1.05;;;30.30;71.50;;;;;;4937980;28;86770;-72
2022/06/28 08:02:52;;;;;;;2.70;1.52;;;31.20;63.80;;;;;;4940540;28;87465;-76
2022/06/28 08:05:18;;;;;;;2.60;1.10;;;31.70;64.10;;;;;;4939496;28;87953;-75
2022/06/28 08:07:44;;;;;;;3.78;1.15;;;31.50;60.00;;;;;;4940279;28;87167;-72
2022/06/28 08:10:11;;;;;;;3.42;1.30;;;30.60;62.40;;;;;;4939933;28;87150;-72
2022/06/28 08:12:37;;;;;;;2.80;1.42;;;30.00;61.40;;;;;;4939456;28;87453;-73
2022/06/28 08:15:04;;;;;;;3.53;1.80;;;28.70;60.90;;;;;;4941112;28;88156;-72
2022/06/28 08:17:30;;;;;;;3.47;1.10;;;28.30;66.20;;;;;;4939825;28;86941;-71
2022/06/28 08:19:55;;;;;;;4.30;1.50;;;28.20;67.80;;;;;;4939959;28;86599;-72
2022/06/28 08:22:21;;;;;;;3.08;1.77;;;27.90;68.10;;;;;;4940001;28;87334;-75
2022/06/28 08:24:47;;;;;;;1.70;1.20;;;27.40;67.20;;;;;;4939335;28;86826;-74
2022/06/28 08:27:13;;;;;;;2.83;0.85;;;27.00;69.20;;;;;;4939982;28;87028;-72
2022/06/28 08:29:42;;;;;;;1.30;0.55;;;26.60;69.90;;;;;;4939274;28;87972;-72
2022/06/28 08:32:09;;;;;;;2.78;0.40;;;26.10;68.20;;;;;;4935691;28;87722;-72
2022/06/28 08:34:35;;;;;;;2.70;1.08;;;25.30;69.70;;;;;;4940676;28;87156;-73
2022/06/28 08:37:01;;;;;;;2.67;0.90;;;24.70;71.00;;;;;;4931893;28;86854;-73
2022/06/28 08:39:27;;;;;;;2.63;1.17;;;24.30;76.10;;;;;;4939286;28;88139;-72
2022/06/28 08:41:53;;;;;;;1.23;0.80;;;23.90;79.40;;;;;;4939565;28;87076;-74
2022/06/28 08:44:19;;;;;;;2.63;0.47;;;23.70;74.90;;;;;;4939001;28;87338;-72
2022/06/28 08:46:52;;;;;;;4.85;0.73;;;23.60;78.20;;;;;;4939230;28;86330;-72
2022/06/28 08:49:42;;;;;;;1.95;1.10;;;23.50;80.00;;;;;;4939770;28;87292;-73
2022/06/28 08:52:13;;;;;;;1.90;1.10;;;23.40;81.90;;;;;;4939155;28;87341;-73
2022/06/28 08:54:39;;;;;;;4.07;0.70;;;23.30;84.00;;;;;;4937652;28;88098;-72
2022/06/28 08:57:08;;;;;;;1.60;0.50;;;23.30;84.60;;;;;;4939734;28;86654;-73
2022/06/28 08:59:37;;;;;;;4.22;0.88;;;23.20;86.70;;;;;;4938466;28;87226;-73
2022/06/28 09:02:06;;;;;;;2.08;1.05;;;23.10;84.10;;;;;;4937731;28;87090;-72
2022/06/28 09:04:32;;;;;;;3.35;1.10;;;23.00;88.40;;;;;;4939374;28;86964;-75
2022/06/28 09:06:59;;;;;;;1.52;1.10;;;23.00;88.60;;;;;;4941167;28;86980;-73
2022/06/28 09:09:25;;;;;;;2.70;1.20;;;22.70;87.60;;;;;;4939257;28;86763;-72
2022/06/28 09:11:53;;;;;;;1.65;0.98;;;22.60;87.60;;;;;;4937306;28;86194;-72
2022/06/28 09:14:21;;;;;;;5.70;1.85;;;22.60;87.40;;;;;;4939088;28;86514;-77
2022/06/28 09:16:47;;;;;;;7.65;1.27;;;22.60;91.10;;;;;;4939395;28;86910;-72
2022/06/28 09:19:13;;;;;;;15.32;2.88;;;22.40;89.50;;;;;;4939085;28;88333;-72
2022/06/28 09:21:44;;;;;;;8.82;1.27;;;22.40;87.60;;;;;;4939055;28;88403;-72
2022/06/28 09:24:09;;;;;;;1.52;0.90;;;22.10;88.50;;;;;;4938008;28;86925;-73
2022/06/28 09:26:36;;;;;;;3.60;0.90;;;21.40;89.00;;;;;;4938810;28;86532;-74
2022/06/28 09:29:10;;;;;;;3.22;0.70;;;21.40;91.20;;;;;;4938757;28;88122;-74
2022/06/28 09:31:36;;;;;;;3.28;0.73;;;21.40;89.90;;;;;;4937973;28;87364;-72
2022/06/28 09:34:04;;;;;;;4.18;0.60;;;21.40;91.60;;;;;;4939047;28;87562;-73
2022/06/28 09:36:36;;;;;;;3.65;0.93;;;21.50;92.30;;;;;;4939028;28;86191;-74
2022/06/28 09:39:12;;;;;;;1.77;0.65;;;21.40;90.00;;;;;;4936822;28;87505;-72
2022/06/28 09:41:38;;;;;;;;;;;21.20;91.10;;;;;;4943022;28;87089;-72
2022/06/28 09:44:03;;;;;;;4.75;0.80;;;21.00;91.40;;;;;;4940252;28;87979;-73
2022/06/28 09:46:33;;;;;;;2.00;0.65;;;20.80;91.50;;;;;;4937929;28;87154;-74
2022/06/28 09:49:01;;;;;;;1.45;0.93;;;20.40;92.00;;;;;;4938076;28;87314;-72
2022/06/28 09:51:29;;;;;;;1.80;0.80;;;20.00;93.70;;;;;;4932766;28;87082;-75
2022/06/28 09:53:58;;;;;;;2.20;0.60;;;20.00;94.30;;;;;;4938875;28;86925;-75
2022/06/28 09:56:26;;;;;;;2.30;0.50;;;20.20;96.50;;;;;;4931183;28;86825;-71
2022/06/28 09:58:52;;;;;;;1.60;0.60;;;20.30;96.70;;;;;;4939161;28;88166;-72
2022/06/28 10:01:20;;;;;;;2.28;0.60;;;20.10;94.90;;;;;;4939108;28;86820;-75
2022/06/28 10:03:48;;;;;;;2.22;0.52;;;20.30;97.00;;;;;;4937672;28;86921;-72
2022/06/28 10:06:16;;;;;;;2.50;0.43;;;20.50;96.10;;;;;;4932123;28;86711;-72
2022/06/28 10:08:42;;;;;;;2.42;0.75;;;20.50;96.30;;;;;;4934171;28;88204;-75
2022/06/28 10:11:10;;;;;;;1.30;0.70;;;20.60;95.60;;;;;;4931702;28;87201;-76
2022/06/28 10:16:32;;;;;;;4.63;0.73;;;20.40;96.30;;;;;;4935342;28;87385;-74
2022/06/28 10:19:00;;;;;;;2.35;0.85;;;20.40;95.80;;;;;;4934274;28;87882;-74
2022/06/28 10:21:43;;;;;;;3.05;1.00;;;20.60;97.90;;;;;;4929160;28;87482;-72
2022/06/28 10:24:09;;;;;;;2.53;0.65;;;21.00;95.70;;;;;;4929343;28;87063;-75
2022/06/28 10:26:36;;;;;;;3.35;0.90;;;21.10;94.80;;;;;;4928670;28;86991;-75
2022/06/28 10:29:04;;;;;;;1.88;0.77;;;21.60;95.20;;;;;;4929484;28;87272;-74
2022/06/28 10:31:30;;;;;;;1.98;0.90;;;22.10;92.80;;;;;;4935257;28;87080;-72
2022/06/28 10:33:59;;;;;;;1.77;0.45;;;22.50;92.40;;;;;;4937788;28;87855;-71
2022/06/28 10:36:27;;;;;;;2.95;0.65;;;22.90;91.30;;;;;;4928844;28;87121;-75
2022/06/28 10:39:08;;;;;;;1.67;0.60;;;23.40;90.50;;;;;;4930348;28;87160;-72
2022/06/28 10:42:04;;;;;;;2.30;0.63;;;23.70;89.80;;;;;;4934802;28;87134;-72
2022/06/28 10:44:30;;;;;;;2.25;0.95;;;24.00;84.90;;;;;;4936237;28;87417;-75
2022/06/28 10:47:05;;;;;;;2.70;0.73;;;24.20;86.90;;;;;;4934034;28;87784;-74
2022/06/28 10:49:46;;;;;;;1.67;0.80;;;24.40;81.70;;;;;;4930074;28;87166;-76
2022/06/28 10:52:15;;;;;;;1.80;1.27;;;24.30;82.80;;;;;;4935912;28;86732;-74
2022/06/28 10:54:52;;;;;;;2.15;0.77;;;24.30;81.80;;;;;;4936708;28;87045;-74
2022/06/28 10:57:36;;;;;;;1.08;0.30;;;24.30;81.00;;;;;;4936792;28;87330;-72
2022/06/28 11:00:05;;;;;;;2.38;0.43;;;24.50;82.90;;;;;;4929003;28;88014;-75
2022/06/28 11:02:49;;;;;;;1.17;0.70;;;24.80;83.10;;;;;;4935383;28;87325;-74
2022/06/28 11:05:17;;;;;;;2.25;0.68;;;24.90;80.20;;;;;;4936978;28;86885;-75
2022/06/28 11:07:59;;;;;;;1.83;1.10;;;24.60;81.70;;;;;;4934627;28;87007;-74
2022/06/28 11:10:25;;;;;;;2.78;1.08;;;24.40;79.90;;;;;;4931416;28;88575;-74
2022/06/28 11:12:50;;;;;;;3.55;0.90;;;24.40;81.00;;;;;;4927006;28;86990;-76
2022/06/28 11:15:35;;;;;;;2.58;0.90;;;24.20;80.90;;;;;;4926075;28;86966;-71
2022/06/28 11:18:02;;;;;;;5.45;0.77;;;24.10;77.50;;;;;;4924555;28;86639;-73
2022/06/28 11:20:30;;;;;;;4.03;0.70;;;23.90;79.20;;;;;;4920680;28;87695;-73
2022/06/28 11:22:56;;;;;;;1.77;0.85;;;23.80;80.90;;;;;;4925419;28;86955;-71
2022/06/28 11:25:24;;;;;;;2.38;1.08;;;23.70;81.90;;;;;;4928888;28;88716;-72
2022/06/28 11:27:56;;;;;;;2.70;0.60;;;23.70;82.90;;;;;;4928013;28;87142;-77
2022/06/28 11:30:26;;;;;;;2.63;0.85;;;23.60;83.50;;;;;;4924576;28;88803;-74
2022/06/28 11:32:55;;;;;;;1.25;0.45;;;23.50;82.70;;;;;;4922454;28;88539;-72
2022/06/28 11:35:27;;;;;;;1.70;1.08;;;23.00;80.00;;;;;;4928131;28;86613;-73
2022/06/28 11:37:54;;;;;;;2.03;0.47;;;22.80;79.70;;;;;;4929704;28;87056;-77
2022/06/28 11:40:21;;;;;;;1.55;0.57;;;22.70;82.50;;;;;;4921042;28;87362;-74
2022/06/28 11:42:58;;;;;;;4.22;1.25;;;22.60;85.20;;;;;;4922229;28;86653;-74
2022/06/28 11:45:24;;;;;;;1.85;0.60;;;22.70;82.30;;;;;;4924145;28;87347;-73
2022/06/28 11:47:50;;;;;;;5.88;0.55;;;22.60;80.80;;;;;;4924544;28;87293;-75
2022/06/28 11:50:18;;;;;;;7.07;0.25;;;22.60;85.50;;;;;;4921677;28;87883;-75
2022/06/28 11:52:56;;;;;;;1.17;0.50;;;22.60;84.60;;;;;;4919892;28;87168;-74
2022/06/28 11:55:44;;;;;;;4.18;0.52;;;22.40;83.50;;;;;;4923654;28;86847;-75
2022/06/28 11:58:30;;;;;;;2.53;0.90;;;22.50;86.10;;;;;;4925063;28;87052;-74
2022/06/28 12:01:11;;;;;;;2.28;0.60;;;22.60;84.70;;;;;;4926281;28;87313;-72
2022/06/28 12:03:43;;;;;;;2.85;0.90;;;22.80;84.10;;;;;;4930729;28;86978;-73
2022/06/28 12:06:27;;;;;;;2.47;0.70;;;23.10;85.00;;;;;;4929974;28;87560;-74
2022/06/28 12:08:59;;;;;;;2.72;0.75;;;23.50;84.70;;;;;;4927793;28;86307;-75
2022/06/28 12:11:58;;;;;;;3.15;0.63;;;23.70;78.00;;;;;;4930207;28;87258;-75
2022/06/28 12:14:32;;;;;;;2.78;0.93;;;23.50;78.00;;;;;;4910218;28;87271;-73
2022/06/28 12:17:02;;;;;;;2.38;0.70;;;23.30;78.50;;;;;;4922559;28;88171;-74
2022/06/28 12:19:31;;;;;;;1.95;0.68;;;23.00;79.50;;;;;;4930173;28;87077;-72
2022/06/28 12:22:04;;;;;;;2.03;0.50;;;22.90;80.90;;;;;;4934978;28;87154;-71
2022/06/28 12:24:41;;;;;;;2.58;0.77;;;22.80;81.60;;;;;;4934692;28;87998;-72
2022/06/28 12:27:08;;;;;;;4.80;0.75;;;22.80;81.60;;;;;;4934199;28;86996;-79
2022/06/28 12:29:34;;;;;;;2.97;0.80;;;23.00;84.20;;;;;;4936021;28;86951;-70
2022/06/28 12:32:00;;;;;;;1.77;0.90;;;23.50;83.60;;;;;;4933052;28;86864;-74
2022/06/28 12:34:26;;;;;;;2.78;0.70;;;23.80;77.90;;;;;;4937500;28;86866;-73
2022/06/28 12:36:52;;;;;;;3.75;0.88;;;23.70;78.30;;;;;;4938429;28;87090;-75
2022/06/28 12:39:17;;;;;;;1.58;0.60;;;23.60;77.90;;;;;;4936474;28;87015;-74
2022/06/28 12:41:43;;;;;;;3.25;1.02;;;23.50;77.50;;;;;;4938731;28;88970;-72
2022/06/28 12:44:09;;;;;;;4.07;0.95;;;23.60;78.80;;;;;;4939721;28;87361;-72
2022/06/28 12:46:35;;;;;;;2.22;1.13;;;23.80;81.80;;;;;;4937668;28;86811;-72
2022/06/28 12:49:01;;;;;;;1.90;0.80;;;24.10;82.60;;;;;;4939454;28;86622;-75
2022/06/28 12:51:28;;;;;;;2.10;0.85;;;24.20;82.30;;;;;;4939530;28;88326;-74
2022/06/28 12:53:53;;;;;;;2.03;0.80;;;24.30;82.30;;;;;;4939441;28;87336;-73
2022/06/28 12:56:19;;;;;;;3.50;0.85;;;24.30;81.20;;;;;;4936723;28;87423;-73
2022/06/28 12:58:46;;;;;;;4.70;0.93;;;24.30;80.50;;;;;;4941402;28;87091;-71
2022/06/28 13:01:13;;;;;;;1.40;0.80;;;24.20;82.70;;;;;;4940093;28;87273;-72
2022/06/28 13:03:40;;;;;;;2.85;0.82;;;24.10;80.70;;;;;;4940881;28;87395;-72
2022/06/28 13:06:07;;;;;;;3.17;0.88;;;23.90;78.30;;;;;;4937686;28;87853;-72
2022/06/28 13:08:33;;;;;;;3.35;0.60;;;23.50;80.80;;;;;;4936220;28;87083;-72
2022/06/28 13:10:58;;;;;;;2.40;0.65;;;23.40;77.90;;;;;;4938394;28;87727;-75
2022/06/28 13:13:24;;;;;;;1.75;0.70;;;23.10;81.20;;;;;;4939596;28;87452;-72
2022/06/28 13:15:50;;;;;;;3.88;0.85;;;23.00;81.90;;;;;;4939792;28;87046;-72
2022/06/28 13:18:16;;;;;;;4.68;1.23;;;22.90;84.70;;;;;;4936603;28;87025;-71
2022/06/28 13:20:42;;;;;;;2.67;0.75;;;22.70;82.70;;;;;;4940708;28;87645;-72
2022/06/28 13:23:08;;;;;;;7.40;1.35;;;22.70;82.80;;;;;;4940668;28;86875;-75
2022/06/28 13:25:33;;;;;;;4.80;0.43;;;22.50;87.10;;;;;;4940503;28;87527;-72
2022/06/28 13:27:59;;;;;;;1.50;0.68;;;22.40;85.00;;;;;;4940340;28;86984;-73
2022/06/28 13:30:25;;;;;;;3.42;0.93;;;22.30;85.40;;;;;;4939396;28;88506;-71
2022/06/28 13:32:51;;;;;;;6.45;0.75;;;22.20;84.60;;;;;;4939290;28;88777;-69
2022/06/28 13:35:16;;;;;;;5.97;0.90;;;22.10;87.40;;;;;;4939551;28;86820;-72
2022/06/28 13:37:42;;;;;;;7.75;0.98;;;22.00;88.30;;;;;;4938798;28;86928;-71
2022/06/28 13:40:10;;;;;;;10.43;0.93;;;21.90;89.70;;;;;;4941265;28;88136;-70
2022/06/28 13:42:35;;;;;;;8.20;0.80;;;21.80;89.80;;;;;;4932635;28;86863;-72
2022/06/28 13:45:02;;;;;;;3.72;0.50;;;21.70;89.10;;;;;;4940299;28;87139;-69
2022/06/28 13:47:27;;;;;;;2.67;0.95;;;21.60;90.30;;;;;;4935645;28;86331;-70
2022/06/28 13:49:53;;;;;;;5.28;0.75;;;21.40;90.50;;;;;;4930902;28;86771;-71
2022/06/28 13:52:19;;;;;;;3.08;0.88;;;21.40;91.00;;;;;;4939228;28;86822;-73
2022/06/28 13:54:45;;;;;;;4.10;1.33;;;21.20;90.90;;;;;;4940200;28;88797;-70
2022/06/28 13:57:10;;;;;;;4.05;0.98;;;21.20;91.70;;;;;;4941093;28;86888;-73
2022/06/28 13:59:36;;;;;;;2.95;0.82;;;21.00;93.00;;;;;;4937929;28;88106;-70
2022/06/28 14:02:02;;;;;;;3.47;1.20;;;20.80;94.50;;;;;;4938059;28;87676;-70
2022/06/28 14:04:28;;;;;;;2.92;1.02;;;20.40;99.90;;;;;;4938902;28;87145;-70
2022/06/28 14:06:54;;;;;;;2.90;1.10;;;20.20;99.90;;;;;;4937550;28;87154;-71
2022/06/28 14:09:20;;;;;;;4.82;0.93;;;19.90;99.90;;;;;;4937210;28;87230;-74
2022/06/28 14:11:45;;;;;;;5.75;1.48;;;19.80;99.90;;;;;;4936106;28;87822;-72
2022/06/28 14:14:11;;;;;;;6.60;1.00;;;19.70;99.90;;;;;;4936561;28;87720;-69
2022/06/28 14:16:37;;;;;;;4.90;1.80;;;19.60;99.90;;;;;;4935897;28;86968;-73
2022/06/28 14:19:03;;;;;;;4.95;1.58;;;19.40;99.90;;;;;;4936428;28;88605;-70
2022/06/28 14:21:30;;;;;;;8.55;1.88;;;19.10;99.90;;;;;;4937242;28;88273;-74
2022/06/28 14:23:56;;;;;;;9.30;1.83;;;19.00;99.90;;;;;;4937372;28;87098;-73
2022/06/28 14:26:22;;;;;;;6.75;1.60;;;18.80;99.90;;;;;;4936147;28;87163;-70
2022/06/28 14:28:49;;;;;;;4.93;2.30;;;18.40;99.90;;;;;;4938013;28;87865;-73
2022/06/28 14:31:15;;;;;;;6.93;1.98;;;18.20;99.90;;;;;;4937261;28;86997;-69
2022/06/28 14:33:41;;;;;;;6.75;2.20;;;18.20;99.90;;;;;;4933759;28;86582;-69
2022/06/28 14:36:07;;;;;;;8.18;2.40;;;18.20;99.90;;;;;;4936791;28;86366;-72
2022/06/28 14:38:32;;;;;;;9.50;1.98;;;18.10;99.90;;;;;;4936772;28;87245;-72
2022/06/28 14:40:58;;;;;;;8.27;1.75;;;18.20;99.90;;;;;;4936388;28;87801;-69
2022/06/28 14:43:24;;;;;;;9.60;1.50;;;18.20;99.90;;;;;;4936470;28;88014;-70
2022/06/28 14:45:51;;;;;;;6.80;1.73;;;18.30;99.90;;;;;;4937780;28;86902;-71
2022/06/28 14:48:17;;;;;;;7.93;1.67;;;18.40;99.90;;;;;;4932741;28;89208;-71
2022/06/28 14:50:42;;;;;;;6.25;1.83;;;18.50;99.90;;;;;;4935867;28;86959;-75
2022/06/28 14:53:12;;;;;;;6.68;1.60;;;18.50;99.90;;;;;;4938053;28;87188;-72
2022/06/28 14:55:40;;;;;;;10.55;2.10;;;18.60;99.90;;;;;;4936476;28;88025;-76
2022/06/28 14:58:09;;;;;;;11.10;2.00;;;18.80;99.90;;;;;;4937146;28;87298;-72
2022/06/28 15:00:36;;;;;;;7.07;1.30;;;18.90;99.90;;;;;;4936666;28;87340;-72
2022/06/28 15:03:02;;;;;;;8.73;0.95;;;19.10;99.90;;;;;;4937993;28;87007;-74
2022/06/28 15:05:28;;;;;;;10.43;1.75;;;19.50;99.90;;;;;;4935278;28;86919;-76
2022/06/28 15:07:54;;;;;;;6.28;1.33;;;19.80;99.90;;;;;;4927547;28;87825;-74
2022/06/28 15:10:19;;;;;;;2.70;0.90;;;20.00;99.90;;;;;;4936145;28;88198;-74
2022/06/28 15:12:45;;;;;;;5.88;1.70;;;20.30;99.90;;;;;;4936464;28;87020;-71
2022/06/28 15:15:11;;;;;;;7.00;1.85;;;20.50;99.90;;;;;;4942982;28;86960;-71
2022/06/28 15:17:37;;;;;;;4.90;1.83;;;20.40;99.90;;;;;;4932647;28;88411;-71
2022/06/28 15:20:03;;;;;;;3.13;1.00;;;20.50;99.90;;;;;;4926657;28;87020;-74
2022/06/28 15:31:15;;;;;;;9.98;1.80;;;21.20;99.90;;;;;;4933649;28;86934;-72
2022/06/28 15:33:33;;;;;;;3.75;1.13;;;21.50;99.90;;;;;;4932300;28;88029;-77
2022/06/28 15:36:04;;;;;;;4.32;1.40;;;21.50;99.90;;;;;;4938954;28;86946;-73
2022/06/28 15:38:29;;;;;;;8.20;0.80;;;21.80;99.90;;;;;;4934790;28;87026;-74
2022/06/28 15:40:55;;;;;;;4.57;1.15;;;21.70;99.90;;;;;;4935050;28;87389;-72
2022/06/28 15:43:21;;;;;;;3.50;1.00;;;21.90;99.90;;;;;;4931931;28;86825;-71
2022/06/28 15:45:47;;;;;;;5.30;1.38;;;22.00;99.90;;;;;;4934455;28;87203;-73
2022/06/28 15:48:13;;;;;;;5.10;0.90;;;22.10;99.90;;;;;;4932244;28;88600;-73
2022/06/28 15:50:40;;;;;;;5.88;1.13;;;21.90;99.90;;;;;;4936212;28;87275;-71